createdAt,value
2019-03-22T00:01:16.581Z,81.04
2019-03-22T00:04:36.318Z,80.58
2019-03-22T00:07:48.529Z,80.64
2019-03-22T00:11:07.887Z,80.49
2019-03-22T00:14:17.554Z,80.49
2019-03-22T00:17:37.387Z,80.57
2019-03-22T00:20:47.185Z,80.68
2019-03-22T00:23:56.547Z,80.43
2019-03-22T00:27:15.941Z,80.69
2019-03-22T00:30:17.161Z,80.62
2019-03-22T00:33:27.085Z,80.77
2019-03-22T00:36:36.684Z,80.77
2019-03-22T00:39:46.199Z,81.02
2019-03-22T00:42:55.702Z,80.97
2019-03-22T00:46:15.332Z,81.19
2019-03-22T00:49:24.862Z,81.23
2019-03-22T00:52:34.163Z,81.69
2019-03-22T00:55:53.902Z,81.61
2019-03-22T00:59:03.439Z,81.47
2019-03-22T01:02:12.847Z,81.18
2019-03-22T01:05:22.527Z,81.22
2019-03-22T01:08:32.390Z,80.93
2019-03-22T01:11:41.931Z,80.88
2019-03-22T01:14:54.612Z,80.66
2019-03-22T01:18:04.158Z,80.43
2019-03-22T01:21:13.582Z,80.60
2019-03-22T01:24:22.985Z,79.87
2019-03-22T01:27:40.499Z,80.42
2019-03-22T01:30:53.898Z,80.85
2019-03-22T01:34:03.301Z,80.85
2019-03-22T01:37:12.919Z,80.81
2019-03-22T01:40:22.351Z,80.42
2019-03-22T01:43:31.749Z,80.38
2019-03-22T01:46:41.229Z,80.54
2019-03-22T01:49:50.642Z,80.94
2019-03-22T01:53:00.078Z,80.97
2019-03-22T01:56:19.825Z,80.49
2019-03-22T01:59:29.339Z,80.78
2019-03-22T02:02:39.001Z,80.43
2019-03-22T02:05:48.434Z,80.40
2019-03-22T02:08:57.828Z,80.51
2019-03-22T02:12:17.421Z,80.77
2019-03-22T02:15:27.003Z,80.96
2019-03-22T02:18:36.557Z,80.95
2019-03-22T02:21:46.886Z,80.71
2019-03-22T02:24:56.456Z,80.92
2019-03-22T02:28:05.902Z,81.17
2019-03-22T02:31:25.579Z,81.71
2019-03-22T02:34:35.130Z,81.65
2019-03-22T02:37:44.566Z,81.27
2019-03-22T02:40:54.046Z,81.05
2019-03-22T02:44:03.573Z,81.13
2019-03-22T02:47:23.422Z,80.89
2019-03-22T02:50:32.825Z,81.77
2019-03-22T02:53:42.363Z,82.10
2019-03-22T02:56:52.209Z,82.18
2019-03-22T03:00:01.727Z,81.99
2019-03-22T03:03:11.253Z,81.75
2019-03-22T03:06:20.812Z,81.61
2019-03-22T03:09:30.858Z,81.40
2019-03-22T03:12:50.788Z,81.41
2019-03-22T03:16:00.411Z,81.35
2019-03-22T03:19:10.365Z,81.22
2019-03-22T03:22:19.801Z,81.25
2019-03-22T03:25:39.899Z,81.42
2019-03-22T03:28:49.230Z,81.52
2019-03-22T03:31:58.663Z,81.22
2019-03-22T03:35:18.302Z,81.53
2019-03-22T03:38:27.740Z,81.62
2019-03-22T03:41:37.085Z,81.39
2019-03-22T03:44:57.034Z,81.31
2019-03-22T03:48:08.056Z,81.75
2019-03-22T03:51:17.456Z,81.78
2019-03-22T03:54:26.897Z,81.68
2019-03-22T03:57:36.366Z,81.64
2019-03-22T04:00:56.101Z,81.62
2019-03-22T04:04:05.525Z,81.64
2019-03-22T04:07:15.015Z,81.62
2019-03-22T04:10:34.648Z,81.11
2019-03-22T04:13:44.071Z,81.42
2019-03-22T04:16:53.568Z,81.58
2019-03-22T04:20:13.346Z,81.63
2019-03-22T04:23:22.759Z,81.53
2019-03-22T04:26:32.375Z,81.81
2019-03-22T04:29:41.920Z,81.69
2019-03-22T04:32:51.433Z,81.46
2019-03-22T04:36:00.999Z,81.47
2019-03-22T04:39:11.043Z,81.32
2019-03-22T04:42:20.375Z,80.97
2019-03-22T04:45:32.195Z,81.12
2019-03-22T04:48:42.684Z,81.47
2019-03-22T04:51:53.099Z,81.76
2019-03-22T04:55:04.436Z,81.75
2019-03-22T04:58:16.072Z,82.20
2019-03-22T05:01:37.046Z,82.41
2019-03-22T05:04:57.105Z,82.17
2019-03-22T05:08:07.027Z,82.03
2019-03-22T05:11:18.417Z,82.03
2019-03-22T05:14:28.554Z,81.92
2019-03-22T05:17:38.174Z,81.36
2019-03-22T05:20:58.058Z,81.79
2019-03-22T05:24:09.235Z,81.76
2019-03-22T05:27:19.959Z,81.84
2019-03-22T05:31:27.310Z,82.37
2019-03-22T05:34:46.971Z,82.14
2019-03-22T05:37:56.386Z,82.18
2019-03-22T05:41:06.032Z,82.09
2019-03-22T05:44:15.434Z,82.41
2019-03-22T05:47:24.952Z,82.24
2019-03-22T05:50:44.581Z,81.89
2019-03-22T05:53:54.091Z,81.58
2019-03-22T05:57:12.749Z,80.74
2019-03-22T06:00:24.830Z,81.88
2019-03-22T06:03:34.241Z,82.39
2019-03-22T06:06:43.689Z,82.50
2019-03-22T06:10:03.393Z,82.77
2019-03-22T06:13:12.813Z,82.79
2019-03-22T06:16:22.388Z,82.88
2019-03-22T06:19:41.909Z,82.79
2019-03-22T06:22:51.513Z,82.38
2019-03-22T06:26:01.046Z,82.05
2019-03-22T06:29:10.367Z,81.73
2019-03-22T06:32:21.137Z,81.73
2019-03-22T06:35:30.632Z,81.57
2019-03-22T06:38:39.948Z,81.40
2019-03-22T06:41:49.393Z,81.55
2019-03-22T06:44:58.859Z,82.05
2019-03-22T06:48:08.301Z,82.17
2019-03-22T06:51:17.595Z,82.02
2019-03-22T06:54:37.481Z,81.95
2019-03-22T06:57:46.903Z,81.84
2019-03-22T07:00:56.394Z,81.56
2019-03-22T07:04:05.907Z,81.49
2019-03-22T07:07:15.346Z,81.78
2019-03-22T07:10:35.021Z,82.09
2019-03-22T07:13:44.470Z,81.42
2019-03-22T07:16:54.012Z,80.96
2019-03-22T07:20:13.813Z,80.72
2019-03-22T07:23:23.134Z,80.95
2019-03-22T07:26:32.513Z,81.18
2019-03-22T07:29:52.148Z,80.38
2019-03-22T07:33:01.672Z,80.79
2019-03-22T07:36:11.141Z,81.19
2019-03-22T07:39:30.726Z,80.98
2019-03-22T07:42:40.557Z,80.68
2019-03-22T07:45:50.084Z,80.31
2019-03-22T07:48:59.531Z,81.25
2019-03-22T07:52:10.938Z,81.53
2019-03-22T07:55:20.521Z,81.77
2019-03-22T07:58:29.979Z,81.15
2019-03-22T08:01:39.418Z,81.39
2019-03-22T08:04:48.771Z,81.38
2019-03-22T08:08:08.525Z,81.06
2019-03-22T08:11:17.941Z,81.15
2019-03-22T08:14:27.383Z,80.91
2019-03-22T08:17:36.461Z,80.89
2019-03-22T08:20:46.236Z,80.52
2019-03-22T08:23:55.577Z,80.54
2019-03-22T08:27:05.992Z,81.32
2019-03-22T08:30:25.569Z,80.79
2019-03-22T08:33:35.082Z,79.30
2019-03-22T08:36:44.420Z,79.13
2019-03-22T08:40:04.098Z,78.63
2019-03-22T08:43:13.563Z,78.41
2019-03-22T08:46:23.559Z,78.45
2019-03-22T08:49:33.149Z,78.36
2019-03-22T08:52:55.237Z,78.23
2019-03-22T08:56:04.726Z,78.88
2019-03-22T08:59:24.413Z,78.82
2019-03-22T09:02:33.842Z,78.95
2019-03-22T09:05:43.564Z,78.49
2019-03-22T09:08:52.955Z,78.57
2019-03-22T09:12:02.443Z,78.41
2019-03-22T09:15:22.200Z,77.66
2019-03-22T09:18:31.712Z,77.64
2019-03-22T09:21:41.183Z,77.33
2019-03-22T09:25:00.920Z,77.18
2019-03-22T09:28:10.576Z,76.72
2019-03-22T09:31:30.569Z,77.45
2019-03-22T09:34:40.024Z,77.46
2019-03-22T09:37:49.498Z,77.44
2019-03-22T09:41:09.118Z,76.26
2019-03-22T09:44:18.591Z,76.72
2019-03-22T09:47:28.057Z,76.28
2019-03-22T09:50:47.625Z,76.08
2019-03-22T09:53:56.998Z,76.07
2019-03-22T09:57:06.413Z,75.83
2019-03-22T10:00:36.179Z,75.98
2019-03-22T10:03:45.521Z,75.70
2019-03-22T10:06:54.922Z,76.27
2019-03-22T10:10:05.090Z,76.67
2019-03-22T10:13:24.752Z,77.09
2019-03-22T10:16:34.403Z,76.38
2019-03-22T10:19:44.972Z,76.45
2019-03-22T10:22:54.484Z,75.77
2019-03-22T10:26:04.411Z,75.47
2019-03-22T10:29:24.537Z,76.11
2019-03-22T10:32:34.054Z,75.39
2019-03-22T10:35:53.958Z,75.88
2019-03-22T10:39:04.395Z,74.95
2019-03-22T10:42:13.821Z,75.69
2019-03-22T10:45:23.389Z,75.19
2019-03-22T10:48:32.710Z,74.80
2019-03-22T10:51:55.707Z,74.28
2019-03-22T10:54:53.015Z,74.22
2019-03-22T10:58:02.774Z,73.60
2019-03-22T11:01:13.788Z,73.31
2019-03-22T11:04:23.170Z,73.61
2019-03-22T11:07:32.484Z,73.69
2019-03-22T11:10:41.768Z,72.85
2019-03-22T11:14:01.379Z,72.34
2019-03-22T11:17:10.817Z,73.46
2019-03-22T11:20:26.767Z,73.16
2019-03-22T11:23:36.167Z,71.78
2019-03-22T11:26:45.519Z,71.94
2019-03-22T11:29:54.938Z,71.42
2019-03-22T11:33:04.270Z,70.90
2019-03-22T11:36:13.861Z,71.04
2019-03-22T11:39:33.376Z,69.28
2019-03-22T11:42:42.756Z,67.81
2019-03-22T11:45:52.294Z,68.40
2019-03-22T11:49:12.242Z,66.71
2019-03-22T11:52:21.712Z,66.16
2019-03-22T11:55:31.349Z,65.38
2019-03-22T11:58:40.717Z,65.32
2019-03-22T12:01:50.065Z,65.79
2019-03-22T12:05:10.191Z,65.83
2019-03-22T12:08:19.631Z,65.37
2019-03-22T12:11:28.987Z,64.25
2019-03-22T12:14:38.487Z,60.28
2019-03-22T12:17:47.846Z,56.97
2019-03-22T12:21:07.487Z,55.01
2019-03-22T12:24:18.674Z,52.88
2019-03-22T12:27:36.218Z,51.67
2019-03-22T12:30:49.373Z,48.74
2019-03-22T12:33:58.851Z,47.75
2019-03-22T12:37:08.224Z,45.94
2019-03-22T12:40:27.986Z,45.83
2019-03-22T12:43:37.480Z,45.70
2019-03-22T12:46:49.110Z,44.11
2019-03-22T12:49:58.039Z,43.83
2019-03-22T12:53:07.364Z,43.33
2019-03-22T12:56:16.893Z,43.40
2019-03-22T12:59:26.232Z,42.60
2019-03-22T13:02:42.168Z,43.90
2019-03-22T13:05:46.794Z,43.47
2019-03-22T13:08:56.220Z,41.92
2019-03-22T13:12:18.593Z,42.46
2019-03-22T13:15:28.105Z,42.92
2019-03-22T13:18:37.526Z,42.62
2019-03-22T13:21:47.633Z,42.36
2019-03-22T13:24:57.943Z,41.22
2019-03-22T13:28:05.961Z,41.27
2019-03-22T13:31:25.751Z,39.50
2019-03-22T13:34:35.173Z,41.16
2019-03-22T13:37:45.134Z,43.61
2019-03-22T13:40:55.709Z,43.64
2019-03-22T13:44:05.185Z,42.80
2019-03-22T13:47:14.529Z,42.10
2019-03-22T13:50:24.013Z,41.72
2019-03-22T13:53:33.421Z,43.86
2019-03-22T13:56:53.140Z,45.83
2019-03-22T14:00:02.539Z,47.39
2019-03-22T14:03:12.006Z,48.85
2019-03-22T14:06:31.753Z,51.53
2019-03-22T14:09:41.203Z,52.98
2019-03-22T14:12:50.622Z,54.23
2019-03-22T14:16:10.308Z,54.92
2019-03-22T14:19:19.653Z,54.85
2019-03-22T14:22:28.996Z,54.69
2019-03-22T14:25:38.431Z,55.38
2019-03-22T14:28:47.935Z,56.19
2019-03-22T14:31:57.895Z,56.54
2019-03-22T14:35:07.836Z,57.36
2019-03-22T14:38:17.166Z,57.18
2019-03-22T14:41:26.577Z,57.90
2019-03-22T14:44:35.557Z,58.02
2019-03-22T14:47:55.156Z,57.36
2019-03-22T14:51:04.606Z,57.37
2019-03-22T14:54:14.084Z,57.18
2019-03-22T14:57:34.399Z,57.78
2019-03-22T15:00:43.797Z,57.65
2019-03-22T15:04:03.486Z,58.85
2019-03-22T15:07:19.360Z,59.66
2019-03-22T15:10:24.026Z,60.43
2019-03-22T15:13:52.989Z,60.36
2019-03-22T15:17:45.032Z,60.46
2019-03-22T15:21:12.169Z,60.31
2019-03-22T15:24:38.816Z,60.39
2019-03-22T15:28:10.195Z,60.20
2019-03-22T15:31:36.940Z,60.09
2019-03-22T15:35:05.269Z,60.00
2019-03-22T15:38:48.674Z,60.34
2019-03-22T15:41:58.314Z,60.73
2019-03-22T15:45:10.599Z,61.00
2019-03-22T15:48:31.514Z,60.40
2019-03-22T15:51:51.381Z,61.22
2019-03-22T15:55:00.739Z,61.34
2019-03-22T15:58:10.271Z,61.39
2019-03-22T16:01:29.910Z,61.62
2019-03-22T16:04:39.378Z,61.99
2019-03-22T16:07:48.895Z,62.01
2019-03-22T16:11:08.515Z,61.59
2019-03-22T16:14:17.881Z,61.79
2019-03-22T16:17:27.195Z,61.88
2019-03-22T16:20:36.597Z,61.99
2019-03-22T16:23:46.019Z,61.99
2019-03-22T16:26:55.393Z,62.30
2019-03-22T16:30:15.235Z,62.86
2019-03-22T16:33:24.596Z,63.29
2019-03-22T16:36:33.925Z,63.42
2019-03-22T16:39:53.654Z,63.54
2019-03-22T16:43:02.998Z,63.54
2019-03-22T16:46:14.152Z,63.93
2019-03-22T16:49:33.991Z,64.39
2019-03-22T16:52:43.362Z,64.43
2019-03-22T16:55:54.404Z,64.78
2019-03-22T16:59:14.054Z,64.76
2019-03-22T17:02:23.564Z,64.89
2019-03-22T17:05:33.114Z,65.08
2019-03-22T17:08:42.508Z,65.42
2019-03-22T17:11:51.849Z,65.73
2019-03-22T17:15:01.352Z,66.33
2019-03-22T17:18:10.897Z,67.07
2019-03-22T17:21:20.386Z,67.32
2019-03-22T17:24:30.024Z,67.68
2019-03-22T17:27:39.577Z,67.60
2019-03-22T17:30:48.978Z,67.95
2019-03-22T17:33:58.342Z,67.98
2019-03-22T17:37:09.322Z,68.17
2019-03-22T17:40:18.882Z,68.28
2019-03-22T17:43:28.252Z,68.60
2019-03-22T17:46:47.790Z,68.88
2019-03-22T17:49:57.168Z,69.16
2019-03-22T17:53:06.493Z,69.61
2019-03-22T17:56:15.858Z,69.89
2019-03-22T17:59:25.401Z,70.07
2019-03-22T18:02:34.902Z,70.24
2019-03-22T18:05:54.536Z,70.58
2019-03-22T18:09:04.906Z,71.00
2019-03-22T18:12:14.199Z,71.06
2019-03-22T18:15:23.583Z,71.34
2019-03-22T18:18:43.411Z,71.51
2019-03-22T18:21:54.536Z,72.07
2019-03-22T18:25:04.015Z,72.22
2019-03-22T18:28:24.485Z,72.55
2019-03-22T18:31:33.877Z,72.46
2019-03-22T18:34:43.443Z,72.43
2019-03-22T18:38:03.086Z,72.34
2019-03-22T18:41:12.449Z,72.96
2019-03-22T18:44:21.755Z,73.06
2019-03-22T18:47:31.115Z,73.05
2019-03-22T18:50:40.521Z,73.17
2019-03-22T18:53:50.090Z,73.45
2019-03-22T18:57:09.733Z,73.54
2019-03-22T19:00:19.474Z,73.72
2019-03-22T19:03:28.786Z,73.87
2019-03-22T19:06:38.134Z,74.22
2019-03-22T19:09:47.437Z,74.31
2019-03-22T19:12:56.782Z,75.30
2019-03-22T19:16:06.218Z,75.43
2019-03-22T19:19:15.553Z,75.54
2019-03-22T19:22:24.877Z,75.87
2019-03-22T19:25:34.215Z,75.96
2019-03-22T19:28:43.575Z,75.97
2019-03-22T19:31:52.887Z,75.91
2019-03-22T19:35:02.215Z,75.53
2019-03-22T19:38:11.561Z,75.96
2019-03-22T19:41:20.861Z,75.80
2019-03-22T19:44:30.370Z,76.30
2019-03-22T19:47:41.535Z,76.51
2019-03-22T19:51:00.984Z,76.62
2019-03-22T19:54:10.325Z,76.81
2019-03-22T19:57:19.781Z,77.05
2019-03-22T20:00:29.082Z,77.19
2019-03-22T20:03:38.510Z,77.41
2019-03-22T20:06:47.941Z,78.23
2019-03-22T20:10:09.721Z,77.90
2019-03-22T20:13:19.256Z,78.13
2019-03-22T20:16:28.599Z,78.86
2019-03-22T20:19:37.983Z,78.18
2019-03-22T20:22:47.317Z,78.74
2019-03-22T20:26:07.050Z,79.16
2019-03-22T20:29:16.380Z,80.07
2019-03-22T20:32:25.795Z,79.78
2019-03-22T20:35:35.138Z,80.36
2019-03-22T20:38:44.477Z,80.80
2019-03-22T20:41:53.802Z,80.44
2019-03-22T20:45:03.199Z,80.00
2019-03-22T20:48:12.649Z,80.34
2019-03-22T20:51:21.969Z,80.43
2019-03-22T20:54:41.702Z,80.30
2019-03-22T20:57:51.167Z,80.11
2019-03-22T21:01:00.668Z,80.13
2019-03-22T21:04:20.190Z,80.21
2019-03-22T21:07:33.779Z,80.33
2019-03-22T21:10:43.139Z,80.99
2019-03-22T21:13:52.612Z,81.65
2019-03-22T21:17:12.439Z,81.60
2019-03-22T21:20:21.969Z,81.84
2019-03-22T21:23:36.264Z,81.54
2019-03-22T21:26:52.739Z,81.45
2019-03-22T21:30:02.080Z,81.65
2019-03-22T21:33:11.364Z,82.33
2019-03-22T21:36:31.292Z,82.19
2019-03-22T21:39:40.708Z,82.18
2019-03-22T21:42:50.016Z,82.02
2019-03-22T21:46:09.818Z,82.42
2019-03-22T21:49:19.134Z,83.00
2019-03-22T21:52:28.464Z,83.13
2019-03-22T21:55:38.206Z,83.61
2019-03-22T21:58:47.523Z,83.82
2019-03-22T22:01:56.944Z,83.87
2019-03-22T22:05:06.737Z,83.99
2019-03-22T22:08:16.075Z,83.72
2019-03-22T22:11:35.582Z,83.71
2019-03-22T22:14:44.917Z,83.88
2019-03-22T22:17:54.428Z,84.66
2019-03-22T22:21:15.726Z,84.42
2019-03-22T22:24:25.311Z,84.46
2019-03-22T22:27:34.628Z,84.40
2019-03-22T22:30:54.387Z,84.79
2019-03-22T22:34:03.890Z,84.89
2019-03-22T22:37:13.285Z,84.91
2019-03-22T22:40:33.196Z,84.85
2019-03-22T22:43:42.545Z,85.12
2019-03-22T22:46:52.013Z,84.93
2019-03-22T22:50:01.483Z,85.03
2019-03-22T22:53:11.190Z,85.06
2019-03-22T22:56:20.808Z,85.03
2019-03-22T22:59:30.141Z,84.99
2019-03-22T23:02:49.928Z,85.30
2019-03-22T23:06:09.093Z,85.90
2019-03-22T23:09:10.496Z,86.39
2019-03-22T23:12:20.064Z,86.66
2019-03-22T23:15:29.508Z,86.71
2019-03-22T23:18:49.252Z,86.43
2019-03-22T23:21:58.758Z,86.34
2019-03-22T23:25:08.553Z,86.13
2019-03-22T23:28:17.867Z,85.57
2019-03-22T23:31:26.338Z,85.97
2019-03-22T23:34:35.974Z,86.15
2019-03-22T23:37:55.793Z,86.30
2019-03-22T23:41:05.235Z,86.58
2019-03-22T23:44:14.677Z,86.44
2019-03-22T23:47:34.315Z,86.36
2019-03-22T23:50:43.752Z,86.47
2019-03-22T23:53:53.079Z,86.27
2019-03-22T23:57:02.395Z,86.64
